createdAt,value
2023-04-17T00:01:17.749Z,11.46
2023-04-17T00:03:47.328Z,11.46
2023-04-17T00:06:19.027Z,11.40
2023-04-17T00:08:46.779Z,11.35
2023-04-17T00:11:14.436Z,11.34
2023-04-17T00:13:44.016Z,11.34
2023-04-17T00:16:12.770Z,11.38
2023-04-17T00:18:40.688Z,11.34
2023-04-17T00:21:08.481Z,11.35
2023-04-17T00:23:37.589Z,11.36
2023-04-17T00:26:05.382Z,11.38
2023-04-17T00:28:33.760Z,11.35
2023-04-17T00:31:01.534Z,11.31
2023-04-17T00:33:29.226Z,11.31
2023-04-17T00:35:57.174Z,11.31
2023-04-17T00:38:24.905Z,11.32
2023-04-17T00:40:54.033Z,11.28
2023-04-17T00:43:21.711Z,11.25
2023-04-17T00:45:49.735Z,11.25
2023-04-17T00:48:17.992Z,11.24
2023-04-17T00:50:46.284Z,11.23
2023-04-17T00:53:14.448Z,11.20
2023-04-17T00:55:43.193Z,11.19
2023-04-17T00:58:12.724Z,11.21
2023-04-17T01:00:40.461Z,11.20
2023-04-17T01:03:08.493Z,11.18
2023-04-17T01:05:38.306Z,11.15
2023-04-17T01:08:06.645Z,11.12
2023-04-17T01:10:34.331Z,11.12
2023-04-17T01:13:05.873Z,11.14
2023-04-17T01:15:35.642Z,11.17
2023-04-17T01:18:03.643Z,11.17
2023-04-17T01:20:31.462Z,11.18
2023-04-17T01:22:59.312Z,11.18
2023-04-17T01:25:29.209Z,11.16
2023-04-17T01:27:57.288Z,11.14
2023-04-17T01:30:25.431Z,11.14
2023-04-17T01:32:55.038Z,11.15
2023-04-17T01:35:23.035Z,11.14
2023-04-17T01:37:50.766Z,11.14
2023-04-17T01:40:18.582Z,11.18
2023-04-17T01:42:47.764Z,11.20
2023-04-17T01:45:15.464Z,11.20
2023-04-17T01:47:43.156Z,11.18
2023-04-17T01:50:11.889Z,11.16
2023-04-17T01:52:40.115Z,11.13
2023-04-17T01:55:08.318Z,11.17
2023-04-17T01:57:36.063Z,11.16
2023-04-17T02:00:07.939Z,11.14
2023-04-17T02:02:35.782Z,11.14
2023-04-17T02:05:03.683Z,11.15
2023-04-17T02:07:31.334Z,11.13
2023-04-17T02:09:58.994Z,11.14
2023-04-17T02:12:26.766Z,11.14
2023-04-17T02:14:54.669Z,11.11
2023-04-17T02:17:23.773Z,11.07
2023-04-17T02:19:51.436Z,11.05
2023-04-17T02:22:19.439Z,11.00
2023-04-17T02:24:47.200Z,10.97
2023-04-17T02:27:14.894Z,10.98
2023-04-17T02:29:42.673Z,10.99
2023-04-17T02:32:10.465Z,10.99
2023-04-17T02:34:39.589Z,11.00
2023-04-17T02:37:07.252Z,11.05
2023-04-17T02:39:35.279Z,11.06
2023-04-17T02:42:03.177Z,11.09
2023-04-17T02:44:30.949Z,11.08
2023-04-17T02:46:58.715Z,11.04
2023-04-17T02:49:26.486Z,11.00
2023-04-17T02:51:55.619Z,11.00
2023-04-17T02:54:23.365Z,10.98
2023-04-17T02:56:53.313Z,11.00
2023-04-17T02:59:20.973Z,11.02
2023-04-17T03:01:48.688Z,11.00
2023-04-17T03:04:16.545Z,10.99
2023-04-17T03:06:44.335Z,11.01
2023-04-17T03:09:14.952Z,11.01
2023-04-17T03:11:42.649Z,11.04
2023-04-17T03:14:10.315Z,11.06
2023-04-17T03:16:38.076Z,11.06
2023-04-17T03:19:05.899Z,11.05
2023-04-17T03:21:33.709Z,11.03
2023-04-17T03:24:01.633Z,10.99
2023-04-17T03:26:30.778Z,10.99
2023-04-17T03:28:58.387Z,11.00
2023-04-17T03:31:27.863Z,10.99
2023-04-17T03:33:55.840Z,10.99
2023-04-17T03:36:23.492Z,11.02
2023-04-17T03:38:51.125Z,11.01
2023-04-17T03:41:18.772Z,11.04
2023-04-17T03:43:47.846Z,11.00
2023-04-17T03:46:15.837Z,11.07
2023-04-17T03:48:43.519Z,11.09
2023-04-17T03:51:11.168Z,11.07
2023-04-17T03:53:38.784Z,11.10
2023-04-17T03:56:06.751Z,11.10
2023-04-17T03:58:34.540Z,11.10
2023-04-17T04:01:03.671Z,11.08
2023-04-17T04:03:31.576Z,11.09
2023-04-17T04:05:59.435Z,11.10
2023-04-17T04:08:27.056Z,11.09
2023-04-17T04:10:54.744Z,11.10
2023-04-17T04:13:22.450Z,11.07
2023-04-17T04:15:50.283Z,11.04
2023-04-17T04:18:19.467Z,11.05
2023-04-17T04:20:47.131Z,11.04
2023-04-17T04:23:16.681Z,11.03
2023-04-17T04:25:44.504Z,11.02
2023-04-17T04:28:13.291Z,11.03
2023-04-17T04:30:40.995Z,11.05
2023-04-17T04:33:08.931Z,11.08
2023-04-17T04:35:38.564Z,10.99
2023-04-17T04:38:06.396Z,11.06
2023-04-17T04:40:36.155Z,11.05
2023-04-17T04:43:04.395Z,11.03
2023-04-17T04:45:32.112Z,11.04
2023-04-17T04:47:59.880Z,11.04
2023-04-17T04:50:27.600Z,11.05
2023-04-17T04:52:56.631Z,11.07
2023-04-17T04:55:24.588Z,11.07
2023-04-17T04:57:53.426Z,11.06
2023-04-17T05:00:21.571Z,11.07
2023-04-17T05:02:49.628Z,11.07
2023-04-17T05:05:17.522Z,11.09
2023-04-17T05:07:45.258Z,11.11
2023-04-17T05:10:14.397Z,11.11
2023-04-17T05:12:42.466Z,11.11
2023-04-17T05:15:11.367Z,11.07
2023-04-17T05:17:39.144Z,11.07
2023-04-17T05:20:09.209Z,11.07
2023-04-17T05:22:36.944Z,11.06
2023-04-17T05:25:05.120Z,11.08
2023-04-17T05:27:34.250Z,11.07
2023-04-17T05:30:01.914Z,11.06
2023-04-17T05:32:31.175Z,11.06
2023-04-17T05:34:58.937Z,11.02
2023-04-17T05:37:26.718Z,11.05
2023-04-17T05:39:54.391Z,11.05
2023-04-17T05:42:22.032Z,11.08
2023-04-17T05:44:51.233Z,11.12
2023-04-17T05:47:19.333Z,11.13
2023-04-17T05:49:48.626Z,11.13
2023-04-17T05:52:16.316Z,11.12
2023-04-17T05:54:43.984Z,11.13
2023-04-17T05:57:11.652Z,11.13
2023-04-17T05:59:39.403Z,11.13
2023-04-17T06:02:08.801Z,11.17
2023-04-17T06:04:36.858Z,11.16
2023-04-17T06:07:06.250Z,11.13
2023-04-17T06:09:34.058Z,11.13
2023-04-17T06:12:01.799Z,11.13
2023-04-17T06:14:29.431Z,11.14
2023-04-17T06:16:57.145Z,11.19
2023-04-17T06:19:26.340Z,11.22
2023-04-17T06:21:54.036Z,11.21
2023-04-17T06:24:21.681Z,11.25
2023-04-17T06:26:49.356Z,11.26
2023-04-17T06:29:17.014Z,11.31
2023-04-17T06:31:44.720Z,11.35
2023-04-17T06:34:12.393Z,11.37
2023-04-17T06:36:41.624Z,11.36
2023-04-17T06:39:09.465Z,11.39
2023-04-17T06:41:37.378Z,11.43
2023-04-17T06:44:05.130Z,11.45
2023-04-17T06:46:33.006Z,11.44
2023-04-17T06:49:01.698Z,11.46
2023-04-17T06:51:29.423Z,11.42
2023-04-17T06:53:59.241Z,11.41
2023-04-17T06:56:26.918Z,11.40
2023-04-17T06:58:54.956Z,11.38
2023-04-17T07:01:22.691Z,11.34
2023-04-17T07:03:50.618Z,11.39
2023-04-17T07:06:19.470Z,11.45
2023-04-17T07:08:47.170Z,11.46
2023-04-17T07:11:16.278Z,11.47
2023-04-17T07:13:43.986Z,11.52
2023-04-17T07:16:11.756Z,11.56
2023-04-17T07:18:39.515Z,11.57
2023-04-17T07:21:07.428Z,11.60
2023-04-17T07:23:35.073Z,11.60
2023-04-17T07:26:02.820Z,11.61
2023-04-17T07:28:32.027Z,11.67
2023-04-17T07:30:59.782Z,11.70
2023-04-17T07:33:27.735Z,11.75
2023-04-17T07:35:55.468Z,11.75
2023-04-17T07:38:23.217Z,11.77
2023-04-17T07:40:50.877Z,11.80
2023-04-17T07:43:18.623Z,11.85
2023-04-17T07:45:48.935Z,11.93
2023-04-17T07:48:18.612Z,11.95
2023-04-17T07:50:46.431Z,12.01
2023-04-17T07:53:14.131Z,12.06
2023-04-17T07:55:41.823Z,12.10
2023-04-17T07:58:11.368Z,12.12
2023-04-17T08:00:39.234Z,12.19
2023-04-17T08:03:08.578Z,12.24
2023-04-17T08:05:36.516Z,12.25
2023-04-17T08:08:05.606Z,12.27
2023-04-17T08:10:33.313Z,12.28
2023-04-17T08:13:01.975Z,12.29
2023-04-17T08:15:29.915Z,12.19
2023-04-17T08:17:58.446Z,12.30
2023-04-17T08:20:28.094Z,12.29
2023-04-17T08:22:56.337Z,12.25
2023-04-17T08:25:24.141Z,12.27
2023-04-17T08:27:52.921Z,12.27
2023-04-17T08:30:20.676Z,12.26
2023-04-17T08:32:50.211Z,12.29
2023-04-17T08:35:18.177Z,12.33
2023-04-17T08:37:47.632Z,12.39
2023-04-17T08:40:17.053Z,12.44
2023-04-17T08:42:47.632Z,12.47
2023-04-17T08:45:16.534Z,12.50
2023-04-17T08:47:44.824Z,12.56
2023-04-17T08:50:14.249Z,12.62
2023-04-17T08:52:43.426Z,12.67
2023-04-17T08:55:15.203Z,12.75
2023-04-17T08:57:56.789Z,12.78
2023-04-17T09:00:28.517Z,12.80
2023-04-17T09:02:57.769Z,12.84
2023-04-17T09:05:26.507Z,12.87
2023-04-17T09:08:08.172Z,12.89
2023-04-17T09:10:38.210Z,12.93
2023-04-17T09:13:06.275Z,12.93
2023-04-17T09:15:34.568Z,12.93
2023-04-17T09:18:02.367Z,12.96
2023-04-17T09:20:30.335Z,12.97
2023-04-17T09:23:02.852Z,13.02
2023-04-17T09:25:31.093Z,13.08
2023-04-17T09:28:11.572Z,13.11
2023-04-17T09:30:40.008Z,13.15
2023-04-17T09:33:08.768Z,13.21
2023-04-17T09:35:40.094Z,13.24
2023-04-17T09:38:08.280Z,13.26
2023-04-17T09:40:39.916Z,13.28
2023-04-17T09:43:10.889Z,13.30
2023-04-17T09:45:42.487Z,13.34
2023-04-17T09:48:12.020Z,13.37
2023-04-17T09:50:40.379Z,13.38
2023-04-17T09:53:09.244Z,13.39
2023-04-17T09:55:38.160Z,13.40
2023-04-17T09:58:07.436Z,13.41
2023-04-17T10:00:37.884Z,13.45
2023-04-17T10:03:05.864Z,13.50
2023-04-17T10:05:33.776Z,13.55
2023-04-17T10:08:01.936Z,13.58
2023-04-17T10:10:33.309Z,13.62
2023-04-17T10:13:02.511Z,13.68
2023-04-17T10:15:30.859Z,13.74
2023-04-17T10:18:20.086Z,13.80
2023-04-17T10:20:48.503Z,13.88
2023-04-17T10:23:31.161Z,13.96
2023-04-17T10:26:41.128Z,14.01
2023-04-17T10:29:08.895Z,14.06
2023-04-17T10:32:17.087Z,14.07
2023-04-17T10:34:46.235Z,14.06
2023-04-17T10:37:15.518Z,14.06
2023-04-17T10:39:59.127Z,14.08
2023-04-17T10:42:27.950Z,14.05
2023-04-17T10:44:58.845Z,14.03
2023-04-17T10:47:32.434Z,14.04
2023-04-17T10:50:03.976Z,14.09
2023-04-17T10:52:43.499Z,14.11
2023-04-17T10:55:14.326Z,14.15
2023-04-17T10:58:03.593Z,14.19
2023-04-17T11:00:33.833Z,14.19
2023-04-17T11:03:02.295Z,14.21
2023-04-17T11:05:32.440Z,14.17
2023-04-17T11:08:00.218Z,14.15
2023-04-17T11:10:28.235Z,14.14
2023-04-17T11:12:56.731Z,14.13
2023-04-17T11:15:28.799Z,14.12
2023-04-17T11:17:57.865Z,14.11
2023-04-17T11:20:26.657Z,14.11
2023-04-17T11:22:56.187Z,14.09
2023-04-17T11:25:25.100Z,14.12
2023-04-17T11:27:53.764Z,14.21
2023-04-17T11:30:28.895Z,14.27
2023-04-17T11:32:58.768Z,14.26
2023-04-17T11:35:30.512Z,14.27
2023-04-17T11:38:12.125Z,14.30
2023-04-17T11:40:46.904Z,14.29
2023-04-17T11:43:14.717Z,14.33
2023-04-17T11:45:44.099Z,14.34
2023-04-17T11:48:12.940Z,14.43
2023-04-17T11:50:42.182Z,14.49
2023-04-17T11:53:14.319Z,14.53
2023-04-17T11:55:42.026Z,14.60
2023-04-17T11:58:11.248Z,14.65
2023-04-17T12:00:40.715Z,14.69
2023-04-17T12:03:34.635Z,14.78
2023-04-17T12:06:04.190Z,14.87
2023-04-17T12:08:44.013Z,15.01
2023-04-17T12:11:17.931Z,15.18
2023-04-17T12:13:46.047Z,15.32
2023-04-17T12:16:13.779Z,15.40
2023-04-17T12:18:41.591Z,15.39
2023-04-17T12:21:09.384Z,15.36
2023-04-17T12:23:38.390Z,15.34
2023-04-17T12:26:06.162Z,15.40
2023-04-17T12:28:33.908Z,15.48
2023-04-17T12:31:01.731Z,15.54
2023-04-17T12:33:29.654Z,15.56
2023-04-17T12:35:57.683Z,15.60
2023-04-17T12:38:25.509Z,15.72
2023-04-17T12:40:54.622Z,15.87
2023-04-17T12:43:22.366Z,15.89
2023-04-17T12:45:50.448Z,15.89
2023-04-17T12:48:18.221Z,15.85
2023-04-17T12:50:45.923Z,15.82
2023-04-17T12:53:16.132Z,15.74
2023-04-17T12:55:44.638Z,15.69
2023-04-17T12:58:14.447Z,15.61
2023-04-17T13:00:43.478Z,15.54
2023-04-17T13:03:12.311Z,15.51
2023-04-17T13:05:40.566Z,15.49
2023-04-17T13:08:12.497Z,15.60
2023-04-17T13:10:40.386Z,15.70
2023-04-17T13:13:08.305Z,15.90
2023-04-17T13:15:37.601Z,16.06
2023-04-17T13:18:05.778Z,16.22
2023-04-17T13:20:33.527Z,16.39
2023-04-17T13:23:01.524Z,16.48
2023-04-17T13:25:30.362Z,16.56
2023-04-17T13:27:58.654Z,16.67
2023-04-17T13:30:26.349Z,16.83
2023-04-17T13:32:55.446Z,16.94
2023-04-17T13:35:23.215Z,17.00
2023-04-17T13:37:50.966Z,16.94
2023-04-17T13:40:18.751Z,16.81
2023-04-17T13:42:46.464Z,16.82
2023-04-17T13:45:14.239Z,16.88
2023-04-17T13:47:41.866Z,16.84
2023-04-17T13:50:11.509Z,16.72
2023-04-17T13:52:39.273Z,16.60
2023-04-17T13:55:11.883Z,16.50
2023-04-17T13:57:39.741Z,16.39
2023-04-17T14:00:10.732Z,16.40
2023-04-17T14:02:38.690Z,16.52
2023-04-17T14:05:07.582Z,16.64
2023-04-17T14:07:36.720Z,16.79
2023-04-17T14:10:04.770Z,16.92
2023-04-17T14:12:32.534Z,17.07
2023-04-17T14:15:00.218Z,17.17
2023-04-17T14:17:27.964Z,17.30
2023-04-17T14:19:55.750Z,17.30
2023-04-17T14:22:23.432Z,17.29
2023-04-17T14:24:52.633Z,17.26
2023-04-17T14:27:20.361Z,17.13
2023-04-17T14:29:48.082Z,17.02
2023-04-17T14:32:15.782Z,16.87
2023-04-17T14:34:43.722Z,16.75
2023-04-17T14:37:13.638Z,16.64
2023-04-17T14:39:43.260Z,16.56
2023-04-17T14:42:12.333Z,16.54
2023-04-17T14:44:40.082Z,16.59
2023-04-17T14:47:08.520Z,16.66
2023-04-17T14:49:36.275Z,16.77
2023-04-17T14:52:03.920Z,16.87
2023-04-17T14:54:31.651Z,17.03
2023-04-17T14:56:59.299Z,17.18
2023-04-17T14:59:28.957Z,17.34
2023-04-17T15:01:56.778Z,17.34
2023-04-17T15:04:24.633Z,17.25
2023-04-17T15:06:52.477Z,17.08
2023-04-17T15:09:20.174Z,16.91
2023-04-17T15:11:47.928Z,16.85
2023-04-17T15:14:15.681Z,16.94
2023-04-17T15:16:44.812Z,17.00
2023-04-17T15:19:12.746Z,17.06
2023-04-17T15:21:40.565Z,17.17
2023-04-17T15:24:08.477Z,17.29
2023-04-17T15:26:36.169Z,17.41
2023-04-17T15:29:04.077Z,17.49
2023-04-17T15:31:31.769Z,17.54
2023-04-17T15:34:00.818Z,17.55
2023-04-17T15:36:31.517Z,17.58
2023-04-17T15:38:59.204Z,17.59
2023-04-17T15:41:26.900Z,17.65
2023-04-17T15:43:54.579Z,17.65
2023-04-17T15:46:22.684Z,17.65
2023-04-17T15:49:05.002Z,17.63
2023-04-17T15:51:39.014Z,17.61
2023-04-17T15:54:07.995Z,17.60
2023-04-17T15:56:35.671Z,17.59
2023-04-17T15:59:03.437Z,17.65
2023-04-17T16:01:31.299Z,17.66
2023-04-17T16:04:40.165Z,17.66
2023-04-17T16:07:07.906Z,17.66
2023-04-17T16:09:35.641Z,17.65
2023-04-17T16:12:05.499Z,17.62
2023-04-17T16:14:33.205Z,17.62
2023-04-17T16:17:01.170Z,17.61
2023-04-17T16:19:28.822Z,17.59
2023-04-17T16:21:57.888Z,17.61
2023-04-17T16:24:26.122Z,17.59
2023-04-17T16:26:57.493Z,17.52
2023-04-17T16:29:25.275Z,17.41
2023-04-17T16:31:53.146Z,17.45
2023-04-17T16:34:21.508Z,17.44
2023-04-17T16:36:49.543Z,17.50
2023-04-17T16:39:18.639Z,17.51
2023-04-17T16:41:46.475Z,17.54
2023-04-17T16:44:14.362Z,17.57
2023-04-17T16:47:03.160Z,17.56
2023-04-17T16:49:29.751Z,17.50
2023-04-17T16:51:57.635Z,17.41
2023-04-17T16:54:26.726Z,17.37
2023-04-17T16:56:54.424Z,17.35
2023-04-17T16:59:22.151Z,17.35
2023-04-17T17:01:50.647Z,17.32
2023-04-17T17:04:18.463Z,17.33
2023-04-17T17:06:46.186Z,17.36
2023-04-17T17:09:14.045Z,17.34
2023-04-17T17:11:43.219Z,17.30
2023-04-17T17:14:10.876Z,17.27
2023-04-17T17:16:38.732Z,17.24
2023-04-17T17:19:06.446Z,17.20
2023-04-17T17:21:34.293Z,17.20
2023-04-17T17:24:01.988Z,17.21
2023-04-17T17:26:29.720Z,17.21
2023-04-17T17:28:58.738Z,17.12
2023-04-17T17:31:26.393Z,17.08
2023-04-17T17:33:54.974Z,17.05
2023-04-17T17:36:22.721Z,16.97
2023-04-17T17:38:55.726Z,16.89
2023-04-17T17:41:23.705Z,16.87
2023-04-17T17:43:51.425Z,16.84
2023-04-17T17:46:21.502Z,16.82
2023-04-17T17:48:49.251Z,16.79
2023-04-17T17:51:16.910Z,16.74
2023-04-17T17:53:44.571Z,16.72
2023-04-17T17:56:14.791Z,16.69
2023-04-17T17:58:48.894Z,16.66
2023-04-17T18:01:17.308Z,16.63
2023-04-17T18:03:48.935Z,16.56
2023-04-17T18:06:17.356Z,16.51
2023-04-17T18:08:45.047Z,16.48
2023-04-17T18:11:13.852Z,16.47
2023-04-17T18:13:41.669Z,16.45
2023-04-17T18:16:09.515Z,16.39
2023-04-17T18:18:39.711Z,16.36
2023-04-17T18:21:12.408Z,16.30
2023-04-17T18:23:40.789Z,16.27
2023-04-17T18:26:10.522Z,16.24
2023-04-17T18:28:39.039Z,16.18
2023-04-17T18:31:06.985Z,16.13
2023-04-17T18:33:34.950Z,16.08
2023-04-17T18:36:03.496Z,16.04
2023-04-17T18:38:33.054Z,16.01
2023-04-17T18:41:02.838Z,15.97
2023-04-17T18:43:32.709Z,15.91
2023-04-17T18:46:04.176Z,15.88
2023-04-17T18:48:32.059Z,15.83
2023-04-17T18:51:00.161Z,15.78
2023-04-17T18:53:27.843Z,15.73
2023-04-17T18:55:57.904Z,15.69
2023-04-17T18:58:27.598Z,15.65
2023-04-17T19:00:55.473Z,15.61
2023-04-17T19:03:23.323Z,15.57
2023-04-17T19:05:52.997Z,15.55
2023-04-17T19:08:22.712Z,15.49
2023-04-17T19:10:50.466Z,15.45
2023-04-17T19:13:21.311Z,15.42
2023-04-17T19:15:51.154Z,15.38
2023-04-17T19:18:18.993Z,15.34
2023-04-17T19:20:47.870Z,15.25
2023-04-17T19:23:15.562Z,15.24
2023-04-17T19:25:43.420Z,15.20
2023-04-17T19:28:11.400Z,15.16
2023-04-17T19:30:40.847Z,15.10
2023-04-17T19:33:08.794Z,15.08
2023-04-17T19:35:36.577Z,15.06
2023-04-17T19:38:04.292Z,15.02
2023-04-17T19:40:32.165Z,15.02
2023-04-17T19:43:01.391Z,15.01
2023-04-17T19:45:29.391Z,14.95
2023-04-17T19:47:58.516Z,14.94
2023-04-17T19:50:27.468Z,14.88
2023-04-17T19:52:55.891Z,14.84
2023-04-17T19:55:23.730Z,14.81
2023-04-17T19:57:52.219Z,14.79
2023-04-17T20:00:20.719Z,14.75
2023-04-17T20:02:48.540Z,14.73
2023-04-17T20:05:18.468Z,14.74
2023-04-17T20:07:46.135Z,14.75
2023-04-17T20:10:13.869Z,14.74
2023-04-17T20:12:41.594Z,14.66
2023-04-17T20:15:10.684Z,14.64
2023-04-17T20:17:38.482Z,14.64
2023-04-17T20:20:07.610Z,14.61
2023-04-17T20:22:36.682Z,14.59
2023-04-17T20:25:04.765Z,14.52
2023-04-17T20:27:32.432Z,14.52
2023-04-17T20:30:00.217Z,14.52
2023-04-17T20:32:27.883Z,14.46
2023-04-17T20:34:55.764Z,14.50
2023-04-17T20:37:23.970Z,14.48
2023-04-17T20:39:53.090Z,14.45
2023-04-17T20:42:20.818Z,14.45
2023-04-17T20:44:48.446Z,14.43
2023-04-17T20:47:16.206Z,14.41
2023-04-17T20:49:43.937Z,14.39
2023-04-17T20:52:11.599Z,14.38
2023-04-17T20:54:39.295Z,14.36
2023-04-17T20:57:08.339Z,14.31
2023-04-17T20:59:37.210Z,14.25
2023-04-17T21:02:05.038Z,14.21
2023-04-17T21:04:33.008Z,14.16
2023-04-17T21:07:01.018Z,14.12
2023-04-17T21:09:28.792Z,14.10
2023-04-17T21:11:56.524Z,14.10
2023-04-17T21:14:25.853Z,14.04
2023-04-17T21:16:56.422Z,14.02
2023-04-17T21:19:25.987Z,13.96
2023-04-17T21:21:53.732Z,13.87
2023-04-17T21:24:21.851Z,13.88
2023-04-17T21:26:49.520Z,13.81
2023-04-17T21:29:17.325Z,13.73
2023-04-17T21:31:46.581Z,13.71
2023-04-17T21:34:14.440Z,13.69
2023-04-17T21:36:42.377Z,13.63
2023-04-17T21:39:10.106Z,13.58
2023-04-17T21:41:38.298Z,13.54
2023-04-17T21:44:06.068Z,13.47
2023-04-17T21:46:33.731Z,13.40
2023-04-17T21:49:02.756Z,13.38
2023-04-17T21:51:31.490Z,13.33
2023-04-17T21:53:59.250Z,13.30
2023-04-17T21:56:28.252Z,13.25
2023-04-17T21:58:58.192Z,13.14
2023-04-17T22:01:25.984Z,13.20
2023-04-17T22:03:56.857Z,13.13
2023-04-17T22:06:31.420Z,13.03
2023-04-17T22:08:59.245Z,13.08
2023-04-17T22:11:29.442Z,13.12
2023-04-17T22:13:57.295Z,13.01
2023-04-17T22:16:25.020Z,12.96
2023-04-17T22:18:52.953Z,12.91
2023-04-17T22:21:58.719Z,12.87
2023-04-17T22:24:44.970Z,12.67
2023-04-17T22:27:49.124Z,12.73
2023-04-17T22:30:34.140Z,12.67
2023-04-17T22:33:20.385Z,12.58
2023-04-17T22:35:48.097Z,12.54
2023-04-17T22:38:35.864Z,12.53
2023-04-17T22:41:21.544Z,12.49
2023-04-17T22:44:07.801Z,12.49
2023-04-17T22:47:30.542Z,12.47
2023-04-17T22:50:17.879Z,12.44
2023-04-17T22:53:21.585Z,12.39
2023-04-17T22:56:26.505Z,12.29
2023-04-17T22:59:49.327Z,12.18
2023-04-17T23:02:36.880Z,12.10
2023-04-17T23:05:23.267Z,12.07
2023-04-17T23:07:51.180Z,12.05
2023-04-17T23:10:19.071Z,12.04
2023-04-17T23:12:46.864Z,11.99
2023-04-17T23:15:14.690Z,11.99
2023-04-17T23:17:43.785Z,11.96
2023-04-17T23:20:12.857Z,11.96
2023-04-17T23:22:40.627Z,11.92
2023-04-17T23:25:09.294Z,11.85
2023-04-17T23:27:37.087Z,11.76
2023-04-17T23:30:05.373Z,11.73
2023-04-17T23:32:33.036Z,11.70
2023-04-17T23:35:02.171Z,11.67
2023-04-17T23:37:30.032Z,11.64
2023-04-17T23:39:57.822Z,11.67
2023-04-17T23:42:25.639Z,11.64
2023-04-17T23:44:53.376Z,11.65
2023-04-17T23:47:21.171Z,11.64
2023-04-17T23:49:48.850Z,11.62
2023-04-17T23:52:18.949Z,11.57
2023-04-17T23:54:46.567Z,11.50
2023-04-17T23:57:14.175Z,11.46
2023-04-17T23:59:42.044Z,11.45
